sensor_id;sensor_type;location;lat;lon;timestamp;temperature;humidity
43894;DHT22;29556;50.846;4.442;2022-12-18T00:00:58;-0.40;82.90
43894;DHT22;29556;50.846;4.442;2022-12-18T00:03:24;-0.50;82.90
43894;DHT22;29556;50.846;4.442;2022-12-18T00:05:51;-0.60;82.60
43894;DHT22;29556;50.846;4.442;2022-12-18T00:08:18;-0.60;82.70
43894;DHT22;29556;50.846;4.442;2022-12-18T00:10:46;-0.50;82.80
43894;DHT22;29556;50.846;4.442;2022-12-18T00:13:12;-0.60;82.80
43894;DHT22;29556;50.846;4.442;2022-12-18T00:15:39;-0.60;82.70
43894;DHT22;29556;50.846;4.442;2022-12-18T00:18:05;-0.70;82.40
43894;DHT22;29556;50.846;4.442;2022-12-18T00:20:32;-0.60;82.40
43894;DHT22;29556;50.846;4.442;2022-12-18T00:23:00;-0.70;82.40
43894;DHT22;29556;50.846;4.442;2022-12-18T00:25:26;-0.70;82.40
43894;DHT22;29556;50.846;4.442;2022-12-18T00:27:52;-0.70;82.40
43894;DHT22;29556;50.846;4.442;2022-12-18T00:30:18;-0.70;82.50
43894;DHT22;29556;50.846;4.442;2022-12-18T00:32:43;-0.70;82.30
43894;DHT22;29556;50.846;4.442;2022-12-18T00:35:09;-0.70;82.10
43894;DHT22;29556;50.846;4.442;2022-12-18T00:37:35;-0.80;82.20
43894;DHT22;29556;50.846;4.442;2022-12-18T00:40:01;-0.70;82.20
43894;DHT22;29556;50.846;4.442;2022-12-18T00:42:27;-0.80;82.20
43894;DHT22;29556;50.846;4.442;2022-12-18T00:45:12;-0.80;82.30
43894;DHT22;29556;50.846;4.442;2022-12-18T00:47:37;-0.80;82.30
43894;DHT22;29556;50.846;4.442;2022-12-18T00:50:03;-0.80;82.30
43894;DHT22;29556;50.846;4.442;2022-12-18T00:52:29;-0.80;82.30
43894;DHT22;29556;50.846;4.442;2022-12-18T00:54:55;-0.80;82.40
43894;DHT22;29556;50.846;4.442;2022-12-18T00:57:21;-0.80;82.40
43894;DHT22;29556;50.846;4.442;2022-12-18T00:59:47;-0.90;82.20
43894;DHT22;29556;50.846;4.442;2022-12-18T01:02:12;-0.90;82.20
43894;DHT22;29556;50.846;4.442;2022-12-18T01:04:38;-0.90;82.30
43894;DHT22;29556;50.846;4.442;2022-12-18T01:07:04;-0.90;82.30
43894;DHT22;29556;50.846;4.442;2022-12-18T01:09:29;-0.90;82.30
43894;DHT22;29556;50.846;4.442;2022-12-18T01:11:55;-0.90;82.30
43894;DHT22;29556;50.846;4.442;2022-12-18T01:14:20;-0.90;82.30
43894;DHT22;29556;50.846;4.442;2022-12-18T01:16:46;-0.90;82.40
43894;DHT22;29556;50.846;4.442;2022-12-18T01:19:12;-0.90;82.10
43894;DHT22;29556;50.846;4.442;2022-12-18T01:21:37;-1.00;81.90
43894;DHT22;29556;50.846;4.442;2022-12-18T01:24:04;-1.00;81.70
43894;DHT22;29556;50.846;4.442;2022-12-18T01:26:30;-1.00;81.80
43894;DHT22;29556;50.846;4.442;2022-12-18T01:28:56;-1.00;81.90
43894;DHT22;29556;50.846;4.442;2022-12-18T01:31:31;-1.00;82.00
43894;DHT22;29556;50.846;4.442;2022-12-18T01:34:00;-1.00;81.80
43894;DHT22;29556;50.846;4.442;2022-12-18T01:36:28;-1.00;82.00
43894;DHT22;29556;50.846;4.442;2022-12-18T01:38:55;-1.00;82.00
43894;DHT22;29556;50.846;4.442;2022-12-18T01:41:25;-1.00;82.10
43894;DHT22;29556;50.846;4.442;2022-12-18T01:43:54;-1.00;82.00
43894;DHT22;29556;50.846;4.442;2022-12-18T01:46:22;-1.00;82.70
43894;DHT22;29556;50.846;4.442;2022-12-18T01:48:59;-1.00;82.00
43894;DHT22;29556;50.846;4.442;2022-12-18T01:51:27;-1.00;82.00
43894;DHT22;29556;50.846;4.442;2022-12-18T01:53:53;-1.00;82.00
43894;DHT22;29556;50.846;4.442;2022-12-18T01:56:20;-1.00;82.20
43894;DHT22;29556;50.846;4.442;2022-12-18T01:59:03;-1.00;81.90
43894;DHT22;29556;50.846;4.442;2022-12-18T02:01:30;-1.10;81.90
43894;DHT22;29556;50.846;4.442;2022-12-18T02:04:23;-1.10;81.60
43894;DHT22;29556;50.846;4.442;2022-12-18T02:07:24;-1.10;81.70
43894;DHT22;29556;50.846;4.442;2022-12-18T02:09:54;-1.10;82.30
43894;DHT22;29556;50.846;4.442;2022-12-18T02:12:25;-1.10;81.80
43894;DHT22;29556;50.846;4.442;2022-12-18T02:14:55;-1.10;81.60
43894;DHT22;29556;50.846;4.442;2022-12-18T02:23:06;-1.20;81.90
43894;DHT22;29556;50.846;4.442;2022-12-18T02:28:23;-1.10;82.00
43894;DHT22;29556;50.846;4.442;2022-12-18T02:30:53;-1.10;82.00
43894;DHT22;29556;50.846;4.442;2022-12-18T02:33:22;-1.20;81.80
43894;DHT22;29556;50.846;4.442;2022-12-18T02:35:50;-1.20;81.70
43894;DHT22;29556;50.846;4.442;2022-12-18T02:38:17;-1.20;81.80
43894;DHT22;29556;50.846;4.442;2022-12-18T02:40:44;-1.20;81.80
43894;DHT22;29556;50.846;4.442;2022-12-18T02:43:12;-1.20;81.70
43894;DHT22;29556;50.846;4.442;2022-12-18T02:45:57;-1.20;81.70
43894;DHT22;29556;50.846;4.442;2022-12-18T02:48:30;-1.20;81.60
43894;DHT22;29556;50.846;4.442;2022-12-18T02:53:45;-1.20;81.80
43894;DHT22;29556;50.846;4.442;2022-12-18T02:56:17;-1.20;81.80
43894;DHT22;29556;50.846;4.442;2022-12-18T03:01:30;-1.20;81.80
43894;DHT22;29556;50.846;4.442;2022-12-18T03:04:11;-1.20;81.90
43894;DHT22;29556;50.846;4.442;2022-12-18T03:06:43;-1.20;81.80
43894;DHT22;29556;50.846;4.442;2022-12-18T03:09:20;-1.20;81.60
43894;DHT22;29556;50.846;4.442;2022-12-18T03:11:55;-1.20;81.90
43894;DHT22;29556;50.846;4.442;2022-12-18T03:14:41;-1.20;81.90
43894;DHT22;29556;50.846;4.442;2022-12-18T03:17:10;-1.20;81.90
43894;DHT22;29556;50.846;4.442;2022-12-18T03:19:39;-1.30;81.70
43894;DHT22;29556;50.846;4.442;2022-12-18T03:22:07;-1.30;81.50
43894;DHT22;29556;50.846;4.442;2022-12-18T03:24:35;-1.30;81.50
43894;DHT22;29556;50.846;4.442;2022-12-18T03:27:07;-1.30;81.70
43894;DHT22;29556;50.846;4.442;2022-12-18T03:32:09;-1.30;81.60
43894;DHT22;29556;50.846;4.442;2022-12-18T03:34:38;-1.30;81.40
43894;DHT22;29556;50.846;4.442;2022-12-18T03:37:06;-1.40;81.40
43894;DHT22;29556;50.846;4.442;2022-12-18T03:39:33;-1.40;81.40
43894;DHT22;29556;50.846;4.442;2022-12-18T03:42:01;-1.40;81.30
43894;DHT22;29556;50.846;4.442;2022-12-18T03:49:53;-1.50;81.00
43894;DHT22;29556;50.846;4.442;2022-12-18T03:54:50;-1.40;81.30
43894;DHT22;29556;50.846;4.442;2022-12-18T03:57:22;-1.40;81.40
43894;DHT22;29556;50.846;4.442;2022-12-18T03:59:54;-1.40;81.40
43894;DHT22;29556;50.846;4.442;2022-12-18T04:02:22;-1.40;81.50
43894;DHT22;29556;50.846;4.442;2022-12-18T04:04:52;-1.40;81.20
43894;DHT22;29556;50.846;4.442;2022-12-18T04:07:19;-1.40;81.10
43894;DHT22;29556;50.846;4.442;2022-12-18T04:09:48;-1.40;81.00
43894;DHT22;29556;50.846;4.442;2022-12-18T04:12:14;-1.50;80.90
43894;DHT22;29556;50.846;4.442;2022-12-18T04:14:39;-1.40;81.00
43894;DHT22;29556;50.846;4.442;2022-12-18T04:17:05;-1.50;80.50
43894;DHT22;29556;50.846;4.442;2022-12-18T04:19:31;-1.50;80.70
43894;DHT22;29556;50.846;4.442;2022-12-18T04:21:56;-1.60;80.60
43894;DHT22;29556;50.846;4.442;2022-12-18T04:24:22;-1.50;80.80
43894;DHT22;29556;50.846;4.442;2022-12-18T04:26:49;-1.50;81.00
43894;DHT22;29556;50.846;4.442;2022-12-18T04:29:16;-1.60;80.70
43894;DHT22;29556;50.846;4.442;2022-12-18T04:31:42;-1.60;80.70
43894;DHT22;29556;50.846;4.442;2022-12-18T04:34:07;-1.60;80.50
43894;DHT22;29556;50.846;4.442;2022-12-18T04:36:33;-1.40;80.50
43894;DHT22;29556;50.846;4.442;2022-12-18T04:38:59;-1.60;80.20
43894;DHT22;29556;50.846;4.442;2022-12-18T04:41:24;-1.60;80.20
43894;DHT22;29556;50.846;4.442;2022-12-18T04:43:50;-1.60;80.30
43894;DHT22;29556;50.846;4.442;2022-12-18T04:46:16;-1.60;80.10
43894;DHT22;29556;50.846;4.442;2022-12-18T04:48:41;-1.60;80.30
43894;DHT22;29556;50.846;4.442;2022-12-18T04:51:10;-1.60;80.50
43894;DHT22;29556;50.846;4.442;2022-12-18T04:53:35;-1.60;80.60
43894;DHT22;29556;50.846;4.442;2022-12-18T04:56:15;-1.60;80.60
43894;DHT22;29556;50.846;4.442;2022-12-18T04:58:42;-1.40;80.80
43894;DHT22;29556;50.846;4.442;2022-12-18T05:01:10;-1.60;80.50
43894;DHT22;29556;50.846;4.442;2022-12-18T05:03:37;-1.60;80.60
43894;DHT22;29556;50.846;4.442;2022-12-18T05:06:04;-1.50;80.80
43894;DHT22;29556;50.846;4.442;2022-12-18T05:08:31;-1.50;80.80
43894;DHT22;29556;50.846;4.442;2022-12-18T05:11:04;-1.60;80.10
43894;DHT22;29556;50.846;4.442;2022-12-18T05:13:30;-1.60;79.90
43894;DHT22;29556;50.846;4.442;2022-12-18T05:15:56;-1.60;80.30
43894;DHT22;29556;50.846;4.442;2022-12-18T05:18:23;-1.60;80.30
43894;DHT22;29556;50.846;4.442;2022-12-18T05:20:49;-1.60;80.20
43894;DHT22;29556;50.846;4.442;2022-12-18T05:23:15;-1.60;80.40
43894;DHT22;29556;50.846;4.442;2022-12-18T05:25:41;-1.60;80.50
43894;DHT22;29556;50.846;4.442;2022-12-18T05:28:07;-1.70;80.40
43894;DHT22;29556;50.846;4.442;2022-12-18T05:30:33;-1.60;80.70
43894;DHT22;29556;50.846;4.442;2022-12-18T05:32:58;-1.70;80.50
43894;DHT22;29556;50.846;4.442;2022-12-18T05:35:24;-1.60;80.80
43894;DHT22;29556;50.846;4.442;2022-12-18T05:37:50;-1.60;80.70
43894;DHT22;29556;50.846;4.442;2022-12-18T05:40:15;-1.70;80.60
43894;DHT22;29556;50.846;4.442;2022-12-18T05:42:42;-1.70;80.30
43894;DHT22;29556;50.846;4.442;2022-12-18T05:45:08;-1.70;80.60
43894;DHT22;29556;50.846;4.442;2022-12-18T05:47:34;-1.70;80.60
43894;DHT22;29556;50.846;4.442;2022-12-18T05:50:00;-1.70;80.70
43894;DHT22;29556;50.846;4.442;2022-12-18T05:52:26;-1.70;80.70
43894;DHT22;29556;50.846;4.442;2022-12-18T05:54:52;-1.70;80.80
43894;DHT22;29556;50.846;4.442;2022-12-18T05:57:19;-1.70;80.80
43894;DHT22;29556;50.846;4.442;2022-12-18T05:59:50;-1.70;80.60
43894;DHT22;29556;50.846;4.442;2022-12-18T06:02:17;-1.70;80.60
43894;DHT22;29556;50.846;4.442;2022-12-18T06:04:43;-1.70;80.60
43894;DHT22;29556;50.846;4.442;2022-12-18T06:07:08;-1.70;80.60
43894;DHT22;29556;50.846;4.442;2022-12-18T06:09:34;-1.70;80.70
43894;DHT22;29556;50.846;4.442;2022-12-18T06:11:59;-1.70;80.90
43894;DHT22;29556;50.846;4.442;2022-12-18T06:14:26;-1.70;80.70
43894;DHT22;29556;50.846;4.442;2022-12-18T06:16:52;-1.70;80.60
43894;DHT22;29556;50.846;4.442;2022-12-18T06:19:18;-1.70;80.20
43894;DHT22;29556;50.846;4.442;2022-12-18T06:21:45;-1.80;80.00
43894;DHT22;29556;50.846;4.442;2022-12-18T06:24:11;-1.70;80.30
43894;DHT22;29556;50.846;4.442;2022-12-18T06:26:38;-1.70;80.30
43894;DHT22;29556;50.846;4.442;2022-12-18T06:29:04;-1.70;80.30
43894;DHT22;29556;50.846;4.442;2022-12-18T06:31:30;-1.70;80.00
43894;DHT22;29556;50.846;4.442;2022-12-18T06:33:56;-1.70;80.00
43894;DHT22;29556;50.846;4.442;2022-12-18T06:36:23;-1.70;80.10
43894;DHT22;29556;50.846;4.442;2022-12-18T06:38:48;-1.70;80.30
43894;DHT22;29556;50.846;4.442;2022-12-18T06:41:16;-1.60;80.50
43894;DHT22;29556;50.846;4.442;2022-12-18T06:43:42;-1.60;80.80
43894;DHT22;29556;50.846;4.442;2022-12-18T06:46:08;-1.60;80.80
43894;DHT22;29556;50.846;4.442;2022-12-18T06:48:34;-1.60;80.90
43894;DHT22;29556;50.846;4.442;2022-12-18T06:51:00;-1.60;81.50
43894;DHT22;29556;50.846;4.442;2022-12-18T06:53:26;-1.60;80.70
43894;DHT22;29556;50.846;4.442;2022-12-18T06:55:59;-1.60;81.00
43894;DHT22;29556;50.846;4.442;2022-12-18T06:58:24;-1.50;80.80
43894;DHT22;29556;50.846;4.442;2022-12-18T07:00:50;-1.50;81.00
43894;DHT22;29556;50.846;4.442;2022-12-18T07:03:17;-1.50;80.90
43894;DHT22;29556;50.846;4.442;2022-12-18T07:05:42;-1.60;81.00
43894;DHT22;29556;50.846;4.442;2022-12-18T07:08:11;-1.60;80.80
43894;DHT22;29556;50.846;4.442;2022-12-18T07:10:43;-1.60;80.80
43894;DHT22;29556;50.846;4.442;2022-12-18T07:13:09;-1.50;81.20
43894;DHT22;29556;50.846;4.442;2022-12-18T07:15:34;-1.50;81.20
43894;DHT22;29556;50.846;4.442;2022-12-18T07:18:00;-1.50;81.10
43894;DHT22;29556;50.846;4.442;2022-12-18T07:20:26;-1.50;80.80
43894;DHT22;29556;50.846;4.442;2022-12-18T07:22:52;-1.50;81.00
43894;DHT22;29556;50.846;4.442;2022-12-18T07:25:18;-1.50;81.60
43894;DHT22;29556;50.846;4.442;2022-12-18T07:27:43;-1.40;81.20
43894;DHT22;29556;50.846;4.442;2022-12-18T07:30:11;-1.50;81.20
43894;DHT22;29556;50.846;4.442;2022-12-18T07:32:39;-1.40;81.10
43894;DHT22;29556;50.846;4.442;2022-12-18T07:35:05;-1.40;81.30
43894;DHT22;29556;50.846;4.442;2022-12-18T07:37:31;-1.40;81.20
43894;DHT22;29556;50.846;4.442;2022-12-18T07:39:56;-1.40;81.30
43894;DHT22;29556;50.846;4.442;2022-12-18T07:42:22;-1.40;81.20
43894;DHT22;29556;50.846;4.442;2022-12-18T07:45:00;-1.40;80.90
43894;DHT22;29556;50.846;4.442;2022-12-18T07:47:27;-1.40;81.10
43894;DHT22;29556;50.846;4.442;2022-12-18T07:49:53;-1.40;81.10
43894;DHT22;29556;50.846;4.442;2022-12-18T07:52:19;-1.40;81.20
43894;DHT22;29556;50.846;4.442;2022-12-18T07:54:45;-1.40;81.40
43894;DHT22;29556;50.846;4.442;2022-12-18T07:57:10;-1.40;81.40
43894;DHT22;29556;50.846;4.442;2022-12-18T07:59:36;-1.40;81.10
43894;DHT22;29556;50.846;4.442;2022-12-18T08:02:02;-1.40;81.10
43894;DHT22;29556;50.846;4.442;2022-12-18T08:04:28;-1.40;81.30
43894;DHT22;29556;50.846;4.442;2022-12-18T08:06:54;-1.40;81.30
43894;DHT22;29556;50.846;4.442;2022-12-18T08:09:19;-1.30;81.40
43894;DHT22;29556;50.846;4.442;2022-12-18T08:11:45;-1.30;81.40
43894;DHT22;29556;50.846;4.442;2022-12-18T08:14:11;-1.20;81.60
43894;DHT22;29556;50.846;4.442;2022-12-18T08:16:37;-1.20;81.60
43894;DHT22;29556;50.846;4.442;2022-12-18T08:19:03;-1.20;81.90
43894;DHT22;29556;50.846;4.442;2022-12-18T08:21:30;-1.10;81.60
43894;DHT22;29556;50.846;4.442;2022-12-18T08:23:59;-1.00;82.00
43894;DHT22;29556;50.846;4.442;2022-12-18T08:26:27;-1.10;81.70
43894;DHT22;29556;50.846;4.442;2022-12-18T08:28:55;-0.90;82.30
43894;DHT22;29556;50.846;4.442;2022-12-18T08:31:21;-1.00;82.10
43894;DHT22;29556;50.846;4.442;2022-12-18T08:33:52;-0.80;82.60
43894;DHT22;29556;50.846;4.442;2022-12-18T08:36:19;-0.90;82.30
43894;DHT22;29556;50.846;4.442;2022-12-18T08:38:45;-0.80;83.10
43894;DHT22;29556;50.846;4.442;2022-12-18T08:41:13;-0.80;82.50
43894;DHT22;29556;50.846;4.442;2022-12-18T08:43:39;-0.50;82.90
43894;DHT22;29556;50.846;4.442;2022-12-18T08:46:25;-0.60;83.00
43894;DHT22;29556;50.846;4.442;2022-12-18T08:49:14;-0.60;83.00
43894;DHT22;29556;50.846;4.442;2022-12-18T08:52:31;-0.40;83.30
43894;DHT22;29556;50.846;4.442;2022-12-18T08:54:56;-0.40;83.30
43894;DHT22;29556;50.846;4.442;2022-12-18T08:57:22;-0.30;83.30
43894;DHT22;29556;50.846;4.442;2022-12-18T08:59:47;-0.20;82.90
43894;DHT22;29556;50.846;4.442;2022-12-18T09:02:13;-0.30;82.80
43894;DHT22;29556;50.846;4.442;2022-12-18T09:04:39;-0.20;83.30
43894;DHT22;29556;50.846;4.442;2022-12-18T09:07:05;-0.10;83.40
43894;DHT22;29556;50.846;4.442;2022-12-18T09:09:31;-0.10;83.30
43894;DHT22;29556;50.846;4.442;2022-12-18T09:11:56;0.20;83.60
43894;DHT22;29556;50.846;4.442;2022-12-18T09:14:22;0.20;83.70
43894;DHT22;29556;50.846;4.442;2022-12-18T09:16:47;0.30;84.10
43894;DHT22;29556;50.846;4.442;2022-12-18T09:19:13;0.40;84.10
43894;DHT22;29556;50.846;4.442;2022-12-18T09:21:39;0.50;84.00
43894;DHT22;29556;50.846;4.442;2022-12-18T09:24:05;0.60;84.50
43894;DHT22;29556;50.846;4.442;2022-12-18T09:26:31;0.70;84.00
43894;DHT22;29556;50.846;4.442;2022-12-18T09:28:57;0.70;84.00
43894;DHT22;29556;50.846;4.442;2022-12-18T09:31:24;0.90;83.30
43894;DHT22;29556;50.846;4.442;2022-12-18T09:33:50;0.90;83.90
43894;DHT22;29556;50.846;4.442;2022-12-18T09:36:17;1.10;84.20
43894;DHT22;29556;50.846;4.442;2022-12-18T09:38:43;1.00;83.80
43894;DHT22;29556;50.846;4.442;2022-12-18T09:43:57;1.10;84.40
43894;DHT22;29556;50.846;4.442;2022-12-18T09:46:38;1.20;84.00
43894;DHT22;29556;50.846;4.442;2022-12-18T09:49:12;1.30;85.50
43894;DHT22;29556;50.846;4.442;2022-12-18T09:51:43;1.40;82.20
43894;DHT22;29556;50.846;4.442;2022-12-18T09:54:22;1.40;83.20
43894;DHT22;29556;50.846;4.442;2022-12-18T09:56:49;1.50;83.50
43894;DHT22;29556;50.846;4.442;2022-12-18T09:59:32;1.50;83.40
43894;DHT22;29556;50.846;4.442;2022-12-18T10:01:59;1.60;84.30
43894;DHT22;29556;50.846;4.442;2022-12-18T10:04:27;1.60;82.70
43894;DHT22;29556;50.846;4.442;2022-12-18T10:07:06;1.70;83.50
43894;DHT22;29556;50.846;4.442;2022-12-18T10:09:54;1.70;82.60
43894;DHT22;29556;50.846;4.442;2022-12-18T10:15:33;1.90;83.10
43894;DHT22;29556;50.846;4.442;2022-12-18T10:18:14;1.90;83.70
43894;DHT22;29556;50.846;4.442;2022-12-18T10:20:51;2.10;83.70
43894;DHT22;29556;50.846;4.442;2022-12-18T10:23:33;2.10;83.20
43894;DHT22;29556;50.846;4.442;2022-12-18T10:26:07;2.00;81.50
43894;DHT22;29556;50.846;4.442;2022-12-18T10:28:36;2.20;82.50
43894;DHT22;29556;50.846;4.442;2022-12-18T10:31:05;2.20;83.90
43894;DHT22;29556;50.846;4.442;2022-12-18T10:33:32;2.20;83.80
43894;DHT22;29556;50.846;4.442;2022-12-18T10:35:59;2.20;83.70
43894;DHT22;29556;50.846;4.442;2022-12-18T10:38:30;2.40;84.00
43894;DHT22;29556;50.846;4.442;2022-12-18T10:41:22;2.40;84.60
43894;DHT22;29556;50.846;4.442;2022-12-18T10:44:22;2.40;84.00
43894;DHT22;29556;50.846;4.442;2022-12-18T10:46:50;2.40;84.20
43894;DHT22;29556;50.846;4.442;2022-12-18T10:49:23;2.40;84.40
43894;DHT22;29556;50.846;4.442;2022-12-18T10:51:51;2.50;84.10
43894;DHT22;29556;50.846;4.442;2022-12-18T10:54:38;2.50;82.40
43894;DHT22;29556;50.846;4.442;2022-12-18T11:00:18;2.40;80.90
43894;DHT22;29556;50.846;4.442;2022-12-18T11:02:45;2.50;80.20
43894;DHT22;29556;50.846;4.442;2022-12-18T11:07:54;2.70;82.90
43894;DHT22;29556;50.846;4.442;2022-12-18T11:10:33;2.70;79.00
43894;DHT22;29556;50.846;4.442;2022-12-18T11:13:16;2.70;79.70
43894;DHT22;29556;50.846;4.442;2022-12-18T11:15:42;2.90;80.70
43894;DHT22;29556;50.846;4.442;2022-12-18T11:18:37;2.70;79.60
43894;DHT22;29556;50.846;4.442;2022-12-18T11:21:07;2.80;80.40
43894;DHT22;29556;50.846;4.442;2022-12-18T11:23:36;2.80;79.90
43894;DHT22;29556;50.846;4.442;2022-12-18T11:26:04;2.90;82.30
43894;DHT22;29556;50.846;4.442;2022-12-18T11:28:51;3.00;81.40
43894;DHT22;29556;50.846;4.442;2022-12-18T11:31:25;3.00;82.40
43894;DHT22;29556;50.846;4.442;2022-12-18T11:36:22;3.10;82.10
43894;DHT22;29556;50.846;4.442;2022-12-18T11:38:49;3.10;81.00
43894;DHT22;29556;50.846;4.442;2022-12-18T11:41:37;3.10;80.90
43894;DHT22;29556;50.846;4.442;2022-12-18T11:44:42;3.10;78.70
43894;DHT22;29556;50.846;4.442;2022-12-18T11:47:15;3.20;81.40
43894;DHT22;29556;50.846;4.442;2022-12-18T11:49:44;3.30;81.00
43894;DHT22;29556;50.846;4.442;2022-12-18T11:52:19;3.10;77.80
43894;DHT22;29556;50.846;4.442;2022-12-18T11:54:56;3.20;79.60
43894;DHT22;29556;50.846;4.442;2022-12-18T12:00:28;3.30;79.40
43894;DHT22;29556;50.846;4.442;2022-12-18T12:08:38;3.40;81.30
43894;DHT22;29556;50.846;4.442;2022-12-18T12:11:37;3.40;79.60
43894;DHT22;29556;50.846;4.442;2022-12-18T12:20:20;3.60;81.10
43894;DHT22;29556;50.846;4.442;2022-12-18T12:25:40;3.70;81.50
43894;DHT22;29556;50.846;4.442;2022-12-18T12:28:34;3.70;81.10
43894;DHT22;29556;50.846;4.442;2022-12-18T12:34:14;3.70;78.40
43894;DHT22;29556;50.846;4.442;2022-12-18T12:39:38;3.60;72.70
43894;DHT22;29556;50.846;4.442;2022-12-18T12:42:12;3.50;74.50
43894;DHT22;29556;50.846;4.442;2022-12-18T12:45:05;3.70;78.60
43894;DHT22;29556;50.846;4.442;2022-12-18T12:47:34;3.70;77.00
43894;DHT22;29556;50.846;4.442;2022-12-18T12:50:03;3.80;78.40
43894;DHT22;29556;50.846;4.442;2022-12-18T12:52:34;3.80;78.60
43894;DHT22;29556;50.846;4.442;2022-12-18T12:55:02;3.90;80.30
43894;DHT22;29556;50.846;4.442;2022-12-18T12:57:43;3.90;78.20
43894;DHT22;29556;50.846;4.442;2022-12-18T13:00:16;3.90;75.40
43894;DHT22;29556;50.846;4.442;2022-12-18T13:08:03;4.00;79.70
43894;DHT22;29556;50.846;4.442;2022-12-18T13:10:37;4.10;78.90
43894;DHT22;29556;50.846;4.442;2022-12-18T13:13:12;4.10;80.00
43894;DHT22;29556;50.846;4.442;2022-12-18T13:15:45;4.10;79.70
43894;DHT22;29556;50.846;4.442;2022-12-18T13:18:20;4.10;79.30
43894;DHT22;29556;50.846;4.442;2022-12-18T13:21:03;4.20;79.40
43894;DHT22;29556;50.846;4.442;2022-12-18T13:23:37;4.20;79.70
43894;DHT22;29556;50.846;4.442;2022-12-18T13:34:16;4.10;77.70
43894;DHT22;29556;50.846;4.442;2022-12-18T13:36:42;4.20;78.70
43894;DHT22;29556;50.846;4.442;2022-12-18T13:41:46;4.20;79.30
43894;DHT22;29556;50.846;4.442;2022-12-18T13:44:13;4.20;78.30
43894;DHT22;29556;50.846;4.442;2022-12-18T13:46:47;4.20;77.80
43894;DHT22;29556;50.846;4.442;2022-12-18T13:51:49;4.10;76.70
43894;DHT22;29556;50.846;4.442;2022-12-18T13:56:54;4.00;72.20
43894;DHT22;29556;50.846;4.442;2022-12-18T14:02:21;3.80;71.10
43894;DHT22;29556;50.846;4.442;2022-12-18T14:04:46;3.90;72.20
43894;DHT22;29556;50.846;4.442;2022-12-18T14:07:14;4.00;73.40
43894;DHT22;29556;50.846;4.442;2022-12-18T14:09:43;3.90;73.30
43894;DHT22;29556;50.846;4.442;2022-12-18T14:12:25;4.00;74.60
43894;DHT22;29556;50.846;4.442;2022-12-18T14:18:01;3.70;70.20
43894;DHT22;29556;50.846;4.442;2022-12-18T14:20:31;3.80;70.20
43894;DHT22;29556;50.846;4.442;2022-12-18T14:22:57;3.80;71.60
43894;DHT22;29556;50.846;4.442;2022-12-18T14:25:25;3.70;71.60
43894;DHT22;29556;50.846;4.442;2022-12-18T14:33:09;3.80;71.80
43894;DHT22;29556;50.846;4.442;2022-12-18T14:35:43;3.80;73.80
43894;DHT22;29556;50.846;4.442;2022-12-18T14:40:42;3.80;71.40
43894;DHT22;29556;50.846;4.442;2022-12-18T14:43:10;3.80;69.50
43894;DHT22;29556;50.846;4.442;2022-12-18T14:48:07;3.70;70.20
43894;DHT22;29556;50.846;4.442;2022-12-18T14:50:36;3.70;71.20
43894;DHT22;29556;50.846;4.442;2022-12-18T14:53:02;3.80;73.30
43894;DHT22;29556;50.846;4.442;2022-12-18T14:55:27;3.70;70.40
43894;DHT22;29556;50.846;4.442;2022-12-18T14:57:56;3.70;71.90
43894;DHT22;29556;50.846;4.442;2022-12-18T15:00:24;3.90;72.70
43894;DHT22;29556;50.846;4.442;2022-12-18T15:02:56;3.90;73.40
43894;DHT22;29556;50.846;4.442;2022-12-18T15:05:30;3.80;72.10
43894;DHT22;29556;50.846;4.442;2022-12-18T15:08:00;3.70;73.80
43894;DHT22;29556;50.846;4.442;2022-12-18T15:10:33;4.00;73.80
43894;DHT22;29556;50.846;4.442;2022-12-18T15:23:25;3.80;74.30
43894;DHT22;29556;50.846;4.442;2022-12-18T15:26:04;3.80;72.10
43894;DHT22;29556;50.846;4.442;2022-12-18T15:34:00;3.80;73.90
43894;DHT22;29556;50.846;4.442;2022-12-18T15:36:29;3.80;74.40
43894;DHT22;29556;50.846;4.442;2022-12-18T15:39:02;3.80;72.80
43894;DHT22;29556;50.846;4.442;2022-12-18T15:41:31;3.80;72.80
43894;DHT22;29556;50.846;4.442;2022-12-18T15:43:57;3.80;72.30
43894;DHT22;29556;50.846;4.442;2022-12-18T15:46:24;3.80;72.60
43894;DHT22;29556;50.846;4.442;2022-12-18T15:48:52;3.80;72.30
43894;DHT22;29556;50.846;4.442;2022-12-18T15:51:28;3.80;71.10
43894;DHT22;29556;50.846;4.442;2022-12-18T15:53:56;3.70;70.40
43894;DHT22;29556;50.846;4.442;2022-12-18T15:56:22;3.80;70.50
43894;DHT22;29556;50.846;4.442;2022-12-18T15:59:15;3.70;71.40
43894;DHT22;29556;50.846;4.442;2022-12-18T16:01:45;3.80;73.10
43894;DHT22;29556;50.846;4.442;2022-12-18T16:04:12;3.80;73.30
43894;DHT22;29556;50.846;4.442;2022-12-18T16:06:46;4.00;73.10
43894;DHT22;29556;50.846;4.442;2022-12-18T16:09:12;4.00;71.30
43894;DHT22;29556;50.846;4.442;2022-12-18T16:11:39;3.90;71.10
43894;DHT22;29556;50.846;4.442;2022-12-18T16:14:26;3.90;69.70
43894;DHT22;29556;50.846;4.442;2022-12-18T16:17:00;3.70;68.60
43894;DHT22;29556;50.846;4.442;2022-12-18T16:19:28;3.70;68.30
43894;DHT22;29556;50.846;4.442;2022-12-18T16:21:56;3.90;71.10
43894;DHT22;29556;50.846;4.442;2022-12-18T16:24:27;3.80;70.80
43894;DHT22;29556;50.846;4.442;2022-12-18T16:26:53;3.80;69.90
43894;DHT22;29556;50.846;4.442;2022-12-18T16:29:20;3.90;71.80
43894;DHT22;29556;50.846;4.442;2022-12-18T16:31:59;3.90;70.20
43894;DHT22;29556;50.846;4.442;2022-12-18T16:34:31;3.90;70.80
43894;DHT22;29556;50.846;4.442;2022-12-18T16:37:07;3.90;70.70
43894;DHT22;29556;50.846;4.442;2022-12-18T16:39:34;4.00;70.70
43894;DHT22;29556;50.846;4.442;2022-12-18T16:42:05;4.10;72.00
43894;DHT22;29556;50.846;4.442;2022-12-18T16:44:33;4.00;71.40
43894;DHT22;29556;50.846;4.442;2022-12-18T16:46:59;4.00;71.90
43894;DHT22;29556;50.846;4.442;2022-12-18T16:49:27;4.10;73.20
43894;DHT22;29556;50.846;4.442;2022-12-18T16:51:54;4.10;70.20
43894;DHT22;29556;50.846;4.442;2022-12-18T16:54:20;4.00;69.70
43894;DHT22;29556;50.846;4.442;2022-12-18T16:56:46;4.00;69.90
43894;DHT22;29556;50.846;4.442;2022-12-18T16:59:15;4.00;68.90
43894;DHT22;29556;50.846;4.442;2022-12-18T17:01:40;4.00;69.50
43894;DHT22;29556;50.846;4.442;2022-12-18T17:04:09;4.10;70.70
43894;DHT22;29556;50.846;4.442;2022-12-18T17:06:41;4.20;70.40
43894;DHT22;29556;50.846;4.442;2022-12-18T17:09:10;4.00;68.50
43894;DHT22;29556;50.846;4.442;2022-12-18T17:11:36;4.20;70.30
43894;DHT22;29556;50.846;4.442;2022-12-18T17:14:07;4.20;68.60
43894;DHT22;29556;50.846;4.442;2022-12-18T17:16:33;4.00;68.90
43894;DHT22;29556;50.846;4.442;2022-12-18T17:18:59;4.10;69.40
43894;DHT22;29556;50.846;4.442;2022-12-18T17:21:25;4.10;71.30
43894;DHT22;29556;50.846;4.442;2022-12-18T17:23:51;4.10;69.70
43894;DHT22;29556;50.846;4.442;2022-12-18T17:26:16;4.10;70.30
43894;DHT22;29556;50.846;4.442;2022-12-18T17:28:42;4.10;68.80
43894;DHT22;29556;50.846;4.442;2022-12-18T17:31:16;4.10;69.80
43894;DHT22;29556;50.846;4.442;2022-12-18T17:33:43;4.20;70.70
43894;DHT22;29556;50.846;4.442;2022-12-18T17:36:09;4.20;71.50
43894;DHT22;29556;50.846;4.442;2022-12-18T17:38:35;4.20;69.40
43894;DHT22;29556;50.846;4.442;2022-12-18T17:41:05;4.20;69.50
43894;DHT22;29556;50.846;4.442;2022-12-18T17:43:33;4.10;69.80
43894;DHT22;29556;50.846;4.442;2022-12-18T17:46:05;4.10;70.40
43894;DHT22;29556;50.846;4.442;2022-12-18T17:48:31;4.10;71.00